sensor_id;sensor_type;location;lat;lon;timestamp;P1;durP1;ratioP1;P2;durP2;ratioP2
78840;SDS011;68379;47.190;27.558;2023-04-26T00:02:56;20.00;;;8.80;;
78840;SDS011;68379;47.190;27.558;2023-04-26T00:05:29;14.80;;;8.50;;
78840;SDS011;68379;47.190;27.558;2023-04-26T00:08:00;16.20;;;8.80;;
78840;SDS011;68379;47.190;27.558;2023-04-26T00:10:32;13.20;;;8.30;;
78840;SDS011;68379;47.190;27.558;2023-04-26T00:13:04;15.20;;;7.60;;
78840;SDS011;68379;47.190;27.558;2023-04-26T00:15:36;15.70;;;8.80;;
78840;SDS011;68379;47.190;27.558;2023-04-26T00:18:07;16.00;;;8.50;;
78840;SDS011;68379;47.190;27.558;2023-04-26T00:20:39;15.70;;;8.40;;
78840;SDS011;68379;47.190;27.558;2023-04-26T00:23:11;12.90;;;8.40;;
78840;SDS011;68379;47.190;27.558;2023-04-26T00:25:43;18.80;;;8.10;;
78840;SDS011;68379;47.190;27.558;2023-04-26T00:28:15;16.20;;;8.70;;
78840;SDS011;68379;47.190;27.558;2023-04-26T00:30:46;19.20;;;8.20;;
78840;SDS011;68379;47.190;27.558;2023-04-26T00:33:19;20.30;;;8.70;;
78840;SDS011;68379;47.190;27.558;2023-04-26T00:35:51;16.20;;;9.80;;
78840;SDS011;68379;47.190;27.558;2023-04-26T00:38:23;16.40;;;9.60;;
78840;SDS011;68379;47.190;27.558;2023-04-26T00:40:55;15.10;;;8.80;;
78840;SDS011;68379;47.190;27.558;2023-04-26T00:43:26;21.10;;;9.80;;
78840;SDS011;68379;47.190;27.558;2023-04-26T00:45:58;16.90;;;10.20;;
78840;SDS011;68379;47.190;27.558;2023-04-26T00:48:30;15.10;;;8.50;;
78840;SDS011;68379;47.190;27.558;2023-04-26T00:51:02;20.00;;;9.70;;
78840;SDS011;68379;47.190;27.558;2023-04-26T00:53:35;18.50;;;9.80;;
78840;SDS011;68379;47.190;27.558;2023-04-26T00:56:07;18.60;;;8.40;;
78840;SDS011;68379;47.190;27.558;2023-04-26T00:58:40;18.40;;;9.40;;
78840;SDS011;68379;47.190;27.558;2023-04-26T01:01:13;16.30;;;8.90;;
78840;SDS011;68379;47.190;27.558;2023-04-26T01:03:45;17.50;;;9.80;;
78840;SDS011;68379;47.190;27.558;2023-04-26T01:06:17;18.90;;;9.60;;
78840;SDS011;68379;47.190;27.558;2023-04-26T01:08:49;19.00;;;9.40;;
78840;SDS011;68379;47.190;27.558;2023-04-26T01:11:22;17.00;;;9.30;;
78840;SDS011;68379;47.190;27.558;2023-04-26T01:13:54;18.90;;;11.00;;
78840;SDS011;68379;47.190;27.558;2023-04-26T01:16:26;21.20;;;10.90;;
78840;SDS011;68379;47.190;27.558;2023-04-26T01:19:05;18.30;;;10.50;;
78840;SDS011;68379;47.190;27.558;2023-04-26T01:21:39;22.40;;;9.30;;
78840;SDS011;68379;47.190;27.558;2023-04-26T01:24:12;15.90;;;9.20;;
78840;SDS011;68379;47.190;27.558;2023-04-26T01:26:44;17.00;;;9.50;;
78840;SDS011;68379;47.190;27.558;2023-04-26T01:29:17;17.80;;;9.90;;
78840;SDS011;68379;47.190;27.558;2023-04-26T01:31:49;17.00;;;9.70;;
78840;SDS011;68379;47.190;27.558;2023-04-26T01:34:20;18.00;;;9.80;;
78840;SDS011;68379;47.190;27.558;2023-04-26T01:36:52;19.90;;;10.40;;
78840;SDS011;68379;47.190;27.558;2023-04-26T01:39:24;17.90;;;10.40;;
78840;SDS011;68379;47.190;27.558;2023-04-26T01:41:57;19.70;;;10.70;;
78840;SDS011;68379;47.190;27.558;2023-04-26T01:44:30;23.80;;;10.40;;
78840;SDS011;68379;47.190;27.558;2023-04-26T01:47:02;20.60;;;11.30;;
78840;SDS011;68379;47.190;27.558;2023-04-26T01:49:33;20.60;;;11.30;;
78840;SDS011;68379;47.190;27.558;2023-04-26T01:52:05;21.60;;;11.00;;
78840;SDS011;68379;47.190;27.558;2023-04-26T01:54:37;17.50;;;11.30;;
78840;SDS011;68379;47.190;27.558;2023-04-26T01:57:08;20.80;;;11.30;;
78840;SDS011;68379;47.190;27.558;2023-04-26T01:59:40;21.00;;;10.30;;
78840;SDS011;68379;47.190;27.558;2023-04-26T02:02:12;20.50;;;11.00;;
78840;SDS011;68379;47.190;27.558;2023-04-26T02:07:15;24.30;;;11.90;;
78840;SDS011;68379;47.190;27.558;2023-04-26T02:09:47;22.80;;;11.50;;
78840;SDS011;68379;47.190;27.558;2023-04-26T02:12:20;22.00;;;10.80;;
78840;SDS011;68379;47.190;27.558;2023-04-26T02:14:52;18.30;;;10.70;;
78840;SDS011;68379;47.190;27.558;2023-04-26T02:17:24;19.30;;;10.70;;
78840;SDS011;68379;47.190;27.558;2023-04-26T02:19:56;16.70;;;10.00;;
78840;SDS011;68379;47.190;27.558;2023-04-26T02:22:28;19.20;;;10.30;;
78840;SDS011;68379;47.190;27.558;2023-04-26T02:24:59;20.10;;;11.30;;
78840;SDS011;68379;47.190;27.558;2023-04-26T02:27:32;17.60;;;10.80;;
78840;SDS011;68379;47.190;27.558;2023-04-26T02:30:05;20.10;;;11.00;;
78840;SDS011;68379;47.190;27.558;2023-04-26T02:32:37;20.30;;;11.50;;
78840;SDS011;68379;47.190;27.558;2023-04-26T02:35:09;25.10;;;11.90;;
78840;SDS011;68379;47.190;27.558;2023-04-26T02:37:41;21.90;;;11.10;;
78840;SDS011;68379;47.190;27.558;2023-04-26T02:40:16;20.70;;;11.60;;
78840;SDS011;68379;47.190;27.558;2023-04-26T02:42:48;18.60;;;11.90;;
78840;SDS011;68379;47.190;27.558;2023-04-26T02:45:20;21.80;;;11.90;;
78840;SDS011;68379;47.190;27.558;2023-04-26T02:47:52;22.60;;;11.30;;
78840;SDS011;68379;47.190;27.558;2023-04-26T02:50:23;19.70;;;11.70;;
78840;SDS011;68379;47.190;27.558;2023-04-26T02:52:55;23.30;;;12.10;;
78840;SDS011;68379;47.190;27.558;2023-04-26T02:55:27;21.10;;;11.60;;
78840;SDS011;68379;47.190;27.558;2023-04-26T02:57:59;20.00;;;11.70;;
78840;SDS011;68379;47.190;27.558;2023-04-26T03:00:33;22.10;;;13.50;;
78840;SDS011;68379;47.190;27.558;2023-04-26T03:03:05;26.50;;;13.10;;
78840;SDS011;68379;47.190;27.558;2023-04-26T03:05:37;24.90;;;12.40;;
78840;SDS011;68379;47.190;27.558;2023-04-26T03:08:08;23.90;;;13.30;;
78840;SDS011;68379;47.190;27.558;2023-04-26T03:10:40;18.90;;;11.90;;
78840;SDS011;68379;47.190;27.558;2023-04-26T03:13:12;25.00;;;13.90;;
78840;SDS011;68379;47.190;27.558;2023-04-26T03:15:45;22.20;;;13.00;;
78840;SDS011;68379;47.190;27.558;2023-04-26T03:18:17;20.50;;;11.80;;
78840;SDS011;68379;47.190;27.558;2023-04-26T03:20:48;23.40;;;12.20;;
78840;SDS011;68379;47.190;27.558;2023-04-26T03:23:20;21.50;;;12.80;;
78840;SDS011;68379;47.190;27.558;2023-04-26T03:25:53;20.90;;;12.30;;
78840;SDS011;68379;47.190;27.558;2023-04-26T03:28:26;23.60;;;13.10;;
78840;SDS011;68379;47.190;27.558;2023-04-26T03:30:58;7.60;;;5.60;;
78840;SDS011;68379;47.190;27.558;2023-04-26T03:33:30;6.70;;;4.50;;
78840;SDS011;68379;47.190;27.558;2023-04-26T03:36:03;6.90;;;4.20;;
78840;SDS011;68379;47.190;27.558;2023-04-26T03:38:36;4.40;;;3.00;;
78840;SDS011;68379;47.190;27.558;2023-04-26T03:41:08;5.10;;;2.30;;
78840;SDS011;68379;47.190;27.558;2023-04-26T03:43:39;2.80;;;1.60;;
78840;SDS011;68379;47.190;27.558;2023-04-26T03:46:11;1.80;;;1.20;;
78840;SDS011;68379;47.190;27.558;2023-04-26T03:48:43;2.00;;;1.50;;
78840;SDS011;68379;47.190;27.558;2023-04-26T03:51:15;1.90;;;1.10;;
78840;SDS011;68379;47.190;27.558;2023-04-26T03:53:47;1.80;;;1.30;;
78840;SDS011;68379;47.190;27.558;2023-04-26T03:56:19;2.40;;;1.30;;
78840;SDS011;68379;47.190;27.558;2023-04-26T03:58:51;2.80;;;1.50;;
78840;SDS011;68379;47.190;27.558;2023-04-26T04:01:22;1.80;;;1.20;;
78840;SDS011;68379;47.190;27.558;2023-04-26T04:03:55;2.60;;;1.30;;
78840;SDS011;68379;47.190;27.558;2023-04-26T04:06:27;1.40;;;0.90;;
78840;SDS011;68379;47.190;27.558;2023-04-26T04:09:00;1.70;;;1.10;;
78840;SDS011;68379;47.190;27.558;2023-04-26T04:11:32;1.50;;;0.90;;
78840;SDS011;68379;47.190;27.558;2023-04-26T04:14:05;1.20;;;0.80;;
78840;SDS011;68379;47.190;27.558;2023-04-26T04:16:37;1.80;;;1.00;;
78840;SDS011;68379;47.190;27.558;2023-04-26T04:19:09;2.20;;;1.10;;
78840;SDS011;68379;47.190;27.558;2023-04-26T04:21:41;2.20;;;1.30;;
78840;SDS011;68379;47.190;27.558;2023-04-26T04:24:12;1.30;;;0.70;;
78840;SDS011;68379;47.190;27.558;2023-04-26T04:26:44;1.90;;;1.00;;
78840;SDS011;68379;47.190;27.558;2023-04-26T04:29:16;1.30;;;0.80;;
78840;SDS011;68379;47.190;27.558;2023-04-26T04:31:48;1.40;;;1.10;;
78840;SDS011;68379;47.190;27.558;2023-04-26T04:34:20;1.60;;;0.80;;
78840;SDS011;68379;47.190;27.558;2023-04-26T04:36:52;2.00;;;0.80;;
78840;SDS011;68379;47.190;27.558;2023-04-26T04:39:24;1.10;;;0.60;;
78840;SDS011;68379;47.190;27.558;2023-04-26T04:41:56;1.80;;;0.60;;
78840;SDS011;68379;47.190;27.558;2023-04-26T04:44:28;0.60;;;0.30;;
78840;SDS011;68379;47.190;27.558;2023-04-26T04:47:00;0.70;;;0.40;;
78840;SDS011;68379;47.190;27.558;2023-04-26T04:49:32;0.50;;;0.30;;
78840;SDS011;68379;47.190;27.558;2023-04-26T04:52:06;1.50;;;0.40;;
78840;SDS011;68379;47.190;27.558;2023-04-26T04:54:38;0.90;;;0.50;;
78840;SDS011;68379;47.190;27.558;2023-04-26T04:57:11;1.40;;;0.70;;
78840;SDS011;68379;47.190;27.558;2023-04-26T04:59:53;0.90;;;0.50;;
78840;SDS011;68379;47.190;27.558;2023-04-26T05:02:46;1.40;;;1.00;;
78840;SDS011;68379;47.190;27.558;2023-04-26T05:05:19;1.60;;;0.90;;
78840;SDS011;68379;47.190;27.558;2023-04-26T05:07:54;1.70;;;1.20;;
78840;SDS011;68379;47.190;27.558;2023-04-26T05:10:26;1.60;;;0.80;;
78840;SDS011;68379;47.190;27.558;2023-04-26T05:12:58;2.90;;;1.10;;
78840;SDS011;68379;47.190;27.558;2023-04-26T05:15:30;2.30;;;0.90;;
78840;SDS011;68379;47.190;27.558;2023-04-26T05:18:04;1.60;;;1.00;;
78840;SDS011;68379;47.190;27.558;2023-04-26T05:20:38;1.40;;;0.90;;
78840;SDS011;68379;47.190;27.558;2023-04-26T05:23:14;2.30;;;1.60;;
78840;SDS011;68379;47.190;27.558;2023-04-26T05:25:45;2.40;;;1.30;;
78840;SDS011;68379;47.190;27.558;2023-04-26T05:28:18;4.40;;;1.60;;
78840;SDS011;68379;47.190;27.558;2023-04-26T05:30:51;2.00;;;1.20;;
78840;SDS011;68379;47.190;27.558;2023-04-26T05:33:23;2.00;;;1.20;;
78840;SDS011;68379;47.190;27.558;2023-04-26T05:35:57;4.00;;;1.80;;
78840;SDS011;68379;47.190;27.558;2023-04-26T05:38:28;2.30;;;1.60;;
78840;SDS011;68379;47.190;27.558;2023-04-26T05:41:01;2.10;;;1.10;;
78840;SDS011;68379;47.190;27.558;2023-04-26T05:46:10;2.50;;;1.10;;
78840;SDS011;68379;47.190;27.558;2023-04-26T05:48:42;2.10;;;1.20;;
78840;SDS011;68379;47.190;27.558;2023-04-26T05:51:15;1.20;;;0.80;;
78840;SDS011;68379;47.190;27.558;2023-04-26T05:53:47;1.50;;;1.00;;
78840;SDS011;68379;47.190;27.558;2023-04-26T05:56:19;1.40;;;1.00;;
78840;SDS011;68379;47.190;27.558;2023-04-26T05:58:51;2.00;;;1.00;;
78840;SDS011;68379;47.190;27.558;2023-04-26T06:01:23;1.80;;;0.80;;
78840;SDS011;68379;47.190;27.558;2023-04-26T06:03:55;1.00;;;0.50;;
78840;SDS011;68379;47.190;27.558;2023-04-26T06:06:27;3.00;;;0.60;;
78840;SDS011;68379;47.190;27.558;2023-04-26T06:08:59;1.60;;;0.60;;
78840;SDS011;68379;47.190;27.558;2023-04-26T06:11:32;1.30;;;0.70;;
78840;SDS011;68379;47.190;27.558;2023-04-26T06:14:05;2.00;;;0.70;;
78840;SDS011;68379;47.190;27.558;2023-04-26T06:16:37;1.30;;;0.60;;
78840;SDS011;68379;47.190;27.558;2023-04-26T06:19:09;1.70;;;1.00;;
78840;SDS011;68379;47.190;27.558;2023-04-26T06:21:41;0.70;;;0.60;;
78840;SDS011;68379;47.190;27.558;2023-04-26T06:24:13;1.50;;;0.60;;
78840;SDS011;68379;47.190;27.558;2023-04-26T06:26:45;1.60;;;0.80;;
78840;SDS011;68379;47.190;27.558;2023-04-26T06:29:16;0.80;;;0.50;;
78840;SDS011;68379;47.190;27.558;2023-04-26T06:31:48;0.60;;;0.40;;
78840;SDS011;68379;47.190;27.558;2023-04-26T06:34:20;1.10;;;0.60;;
78840;SDS011;68379;47.190;27.558;2023-04-26T06:36:53;0.80;;;0.40;;
78840;SDS011;68379;47.190;27.558;2023-04-26T06:39:25;1.30;;;0.70;;
78840;SDS011;68379;47.190;27.558;2023-04-26T06:41:57;1.10;;;0.80;;
78840;SDS011;68379;47.190;27.558;2023-04-26T06:44:30;1.10;;;0.80;;
78840;SDS011;68379;47.190;27.558;2023-04-26T06:47:02;1.00;;;0.60;;
78840;SDS011;68379;47.190;27.558;2023-04-26T06:49:37;1.30;;;0.70;;
78840;SDS011;68379;47.190;27.558;2023-04-26T06:52:10;1.20;;;0.80;;
78840;SDS011;68379;47.190;27.558;2023-04-26T06:54:42;1.30;;;0.50;;
78840;SDS011;68379;47.190;27.558;2023-04-26T06:57:14;1.20;;;0.60;;
78840;SDS011;68379;47.190;27.558;2023-04-26T06:59:47;1.50;;;0.80;;
78840;SDS011;68379;47.190;27.558;2023-04-26T07:02:19;1.20;;;0.70;;
78840;SDS011;68379;47.190;27.558;2023-04-26T07:04:51;1.50;;;1.00;;
78840;SDS011;68379;47.190;27.558;2023-04-26T07:07:25;1.80;;;0.90;;
78840;SDS011;68379;47.190;27.558;2023-04-26T07:09:58;1.50;;;1.10;;
78840;SDS011;68379;47.190;27.558;2023-04-26T07:12:30;0.90;;;0.50;;
78840;SDS011;68379;47.190;27.558;2023-04-26T07:15:02;1.10;;;0.60;;
78840;SDS011;68379;47.190;27.558;2023-04-26T07:17:35;2.50;;;0.70;;
78840;SDS011;68379;47.190;27.558;2023-04-26T07:20:08;4.10;;;1.20;;
78840;SDS011;68379;47.190;27.558;2023-04-26T07:22:43;1.60;;;0.80;;
78840;SDS011;68379;47.190;27.558;2023-04-26T07:25:15;1.90;;;1.00;;
78840;SDS011;68379;47.190;27.558;2023-04-26T07:27:47;1.40;;;0.90;;
78840;SDS011;68379;47.190;27.558;2023-04-26T07:30:20;1.90;;;1.30;;
78840;SDS011;68379;47.190;27.558;2023-04-26T07:32:52;2.70;;;1.30;;
78840;SDS011;68379;47.190;27.558;2023-04-26T07:35:23;1.90;;;1.30;;
78840;SDS011;68379;47.190;27.558;2023-04-26T07:37:55;1.20;;;1.00;;
78840;SDS011;68379;47.190;27.558;2023-04-26T07:40:27;1.10;;;0.60;;
78840;SDS011;68379;47.190;27.558;2023-04-26T07:42:59;1.70;;;1.00;;
78840;SDS011;68379;47.190;27.558;2023-04-26T07:45:32;1.90;;;1.00;;
78840;SDS011;68379;47.190;27.558;2023-04-26T07:48:04;1.60;;;1.00;;
78840;SDS011;68379;47.190;27.558;2023-04-26T07:50:37;1.90;;;1.20;;
78840;SDS011;68379;47.190;27.558;2023-04-26T07:53:09;2.70;;;1.90;;
78840;SDS011;68379;47.190;27.558;2023-04-26T07:55:41;1.80;;;1.20;;
78840;SDS011;68379;47.190;27.558;2023-04-26T07:58:13;1.50;;;1.20;;
78840;SDS011;68379;47.190;27.558;2023-04-26T08:00:46;2.30;;;1.90;;
78840;SDS011;68379;47.190;27.558;2023-04-26T08:03:19;2.20;;;1.50;;
78840;SDS011;68379;47.190;27.558;2023-04-26T08:05:50;1.80;;;1.60;;
78840;SDS011;68379;47.190;27.558;2023-04-26T08:08:22;1.80;;;1.20;;
78840;SDS011;68379;47.190;27.558;2023-04-26T08:10:55;2.40;;;1.70;;
78840;SDS011;68379;47.190;27.558;2023-04-26T08:13:27;2.30;;;1.60;;
78840;SDS011;68379;47.190;27.558;2023-04-26T08:15:59;1.70;;;1.30;;
78840;SDS011;68379;47.190;27.558;2023-04-26T08:18:31;2.00;;;1.40;;
78840;SDS011;68379;47.190;27.558;2023-04-26T08:21:03;2.10;;;1.40;;
78840;SDS011;68379;47.190;27.558;2023-04-26T08:23:36;1.90;;;1.60;;
78840;SDS011;68379;47.190;27.558;2023-04-26T08:26:08;1.70;;;1.30;;
78840;SDS011;68379;47.190;27.558;2023-04-26T08:28:40;3.70;;;1.50;;
78840;SDS011;68379;47.190;27.558;2023-04-26T08:31:12;1.80;;;1.30;;
78840;SDS011;68379;47.190;27.558;2023-04-26T08:33:43;2.10;;;1.80;;
78840;SDS011;68379;47.190;27.558;2023-04-26T08:36:15;2.60;;;1.10;;
78840;SDS011;68379;47.190;27.558;2023-04-26T08:38:48;2.10;;;1.50;;
78840;SDS011;68379;47.190;27.558;2023-04-26T08:41:21;1.80;;;1.40;;
78840;SDS011;68379;47.190;27.558;2023-04-26T08:43:54;2.00;;;1.60;;
78840;SDS011;68379;47.190;27.558;2023-04-26T08:46:28;2.30;;;1.60;;
78840;SDS011;68379;47.190;27.558;2023-04-26T08:49:12;3.40;;;2.10;;
78840;SDS011;68379;47.190;27.558;2023-04-26T08:51:52;2.00;;;1.70;;
78840;SDS011;68379;47.190;27.558;2023-04-26T08:54:25;3.00;;;1.90;;
78840;SDS011;68379;47.190;27.558;2023-04-26T08:56:59;2.10;;;1.50;;
78840;SDS011;68379;47.190;27.558;2023-04-26T08:59:31;3.30;;;1.70;;
78840;SDS011;68379;47.190;27.558;2023-04-26T09:02:05;2.30;;;2.00;;
78840;SDS011;68379;47.190;27.558;2023-04-26T09:04:39;2.70;;;2.10;;
78840;SDS011;68379;47.190;27.558;2023-04-26T09:07:12;2.80;;;1.90;;
78840;SDS011;68379;47.190;27.558;2023-04-26T09:09:49;2.80;;;2.00;;
78840;SDS011;68379;47.190;27.558;2023-04-26T09:12:23;2.90;;;1.80;;
78840;SDS011;68379;47.190;27.558;2023-04-26T09:14:58;1.70;;;1.30;;
78840;SDS011;68379;47.190;27.558;2023-04-26T09:17:30;2.00;;;1.40;;
78840;SDS011;68379;47.190;27.558;2023-04-26T09:22:51;2.20;;;1.50;;
78840;SDS011;68379;47.190;27.558;2023-04-26T09:25:33;1.90;;;1.60;;
78840;SDS011;68379;47.190;27.558;2023-04-26T09:28:17;1.90;;;1.40;;
78840;SDS011;68379;47.190;27.558;2023-04-26T09:30:51;2.30;;;1.40;;
78840;SDS011;68379;47.190;27.558;2023-04-26T09:33:26;2.20;;;1.30;;
78840;SDS011;68379;47.190;27.558;2023-04-26T09:35:59;1.30;;;1.20;;
78840;SDS011;68379;47.190;27.558;2023-04-26T09:38:43;2.70;;;1.60;;
78840;SDS011;68379;47.190;27.558;2023-04-26T09:41:16;2.20;;;1.30;;
78840;SDS011;68379;47.190;27.558;2023-04-26T09:43:50;1.60;;;1.10;;
78840;SDS011;68379;47.190;27.558;2023-04-26T09:46:22;2.10;;;1.30;;
78840;SDS011;68379;47.190;27.558;2023-04-26T09:49:03;2.40;;;1.40;;
78840;SDS011;68379;47.190;27.558;2023-04-26T09:51:35;2.00;;;1.00;;
78840;SDS011;68379;47.190;27.558;2023-04-26T09:54:07;1.60;;;1.20;;
78840;SDS011;68379;47.190;27.558;2023-04-26T09:56:39;1.70;;;1.30;;
78840;SDS011;68379;47.190;27.558;2023-04-26T09:59:12;1.90;;;1.30;;
78840;SDS011;68379;47.190;27.558;2023-04-26T10:01:44;3.60;;;1.40;;
78840;SDS011;68379;47.190;27.558;2023-04-26T10:04:16;1.50;;;1.00;;
78840;SDS011;68379;47.190;27.558;2023-04-26T10:06:48;1.60;;;1.20;;
78840;SDS011;68379;47.190;27.558;2023-04-26T10:09:20;1.80;;;1.20;;
78840;SDS011;68379;47.190;27.558;2023-04-26T10:11:52;1.80;;;1.50;;
78840;SDS011;68379;47.190;27.558;2023-04-26T10:14:26;1.70;;;1.10;;
78840;SDS011;68379;47.190;27.558;2023-04-26T10:16:58;9.60;;;3.00;;
78840;SDS011;68379;47.190;27.558;2023-04-26T10:19:32;1.90;;;1.40;;
78840;SDS011;68379;47.190;27.558;2023-04-26T10:22:06;1.80;;;1.00;;
78840;SDS011;68379;47.190;27.558;2023-04-26T10:24:41;1.50;;;1.10;;
78840;SDS011;68379;47.190;27.558;2023-04-26T10:27:14;2.00;;;1.50;;
78840;SDS011;68379;47.190;27.558;2023-04-26T10:30:07;1.20;;;1.00;;
78840;SDS011;68379;47.190;27.558;2023-04-26T10:36:03;2.10;;;1.50;;
78840;SDS011;68379;47.190;27.558;2023-04-26T10:38:38;4.20;;;1.50;;
78840;SDS011;68379;47.190;27.558;2023-04-26T10:47:19;1.40;;;1.00;;
78840;SDS011;68379;47.190;27.558;2023-04-26T10:50:09;1.80;;;1.40;;
78840;SDS011;68379;47.190;27.558;2023-04-26T10:55:39;1.20;;;1.00;;
78840;SDS011;68379;47.190;27.558;2023-04-26T10:58:28;1.40;;;1.00;;
78840;SDS011;68379;47.190;27.558;2023-04-26T11:01:06;1.80;;;1.00;;
78840;SDS011;68379;47.190;27.558;2023-04-26T11:06:11;1.50;;;1.30;;
78840;SDS011;68379;47.190;27.558;2023-04-26T11:08:45;1.30;;;1.20;;
78840;SDS011;68379;47.190;27.558;2023-04-26T11:11:18;2.50;;;0.90;;
78840;SDS011;68379;47.190;27.558;2023-04-26T11:13:57;3.00;;;0.90;;
78840;SDS011;68379;47.190;27.558;2023-04-26T11:16:34;1.30;;;0.80;;
78840;SDS011;68379;47.190;27.558;2023-04-26T11:19:07;1.20;;;0.90;;
78840;SDS011;68379;47.190;27.558;2023-04-26T11:21:40;1.70;;;0.90;;
78840;SDS011;68379;47.190;27.558;2023-04-26T11:24:13;2.20;;;0.90;;
78840;SDS011;68379;47.190;27.558;2023-04-26T11:26:51;1.70;;;1.00;;
78840;SDS011;68379;47.190;27.558;2023-04-26T11:29:25;1.90;;;1.10;;
78840;SDS011;68379;47.190;27.558;2023-04-26T11:31:57;2.80;;;1.30;;
78840;SDS011;68379;47.190;27.558;2023-04-26T11:34:32;1.50;;;0.90;;
78840;SDS011;68379;47.190;27.558;2023-04-26T11:37:05;2.20;;;1.20;;
78840;SDS011;68379;47.190;27.558;2023-04-26T11:39:37;1.90;;;1.10;;
78840;SDS011;68379;47.190;27.558;2023-04-26T11:42:09;6.00;;;1.50;;
78840;SDS011;68379;47.190;27.558;2023-04-26T11:44:41;1.70;;;1.10;;
78840;SDS011;68379;47.190;27.558;2023-04-26T11:47:13;1.60;;;1.10;;
78840;SDS011;68379;47.190;27.558;2023-04-26T11:49:47;2.40;;;1.30;;
78840;SDS011;68379;47.190;27.558;2023-04-26T11:52:19;2.90;;;1.50;;
78840;SDS011;68379;47.190;27.558;2023-04-26T11:54:56;2.00;;;1.40;;
78840;SDS011;68379;47.190;27.558;2023-04-26T11:57:33;2.20;;;1.40;;
78840;SDS011;68379;47.190;27.558;2023-04-26T12:00:13;2.80;;;1.30;;
78840;SDS011;68379;47.190;27.558;2023-04-26T12:02:46;1.80;;;1.10;;
78840;SDS011;68379;47.190;27.558;2023-04-26T12:05:23;1.50;;;0.90;;
78840;SDS011;68379;47.190;27.558;2023-04-26T12:07:56;3.40;;;1.40;;
78840;SDS011;68379;47.190;27.558;2023-04-26T12:10:30;1.60;;;1.10;;
78840;SDS011;68379;47.190;27.558;2023-04-26T12:13:03;5.40;;;1.70;;
78840;SDS011;68379;47.190;27.558;2023-04-26T12:15:36;1.40;;;1.20;;
78840;SDS011;68379;47.190;27.558;2023-04-26T12:20:40;1.20;;;0.60;;
78840;SDS011;68379;47.190;27.558;2023-04-26T12:23:14;2.30;;;0.90;;
78840;SDS011;68379;47.190;27.558;2023-04-26T12:25:56;1.30;;;0.70;;
78840;SDS011;68379;47.190;27.558;2023-04-26T12:28:32;0.80;;;0.60;;
78840;SDS011;68379;47.190;27.558;2023-04-26T12:31:05;2.00;;;0.90;;
78840;SDS011;68379;47.190;27.558;2023-04-26T12:33:37;1.10;;;0.70;;
78840;SDS011;68379;47.190;27.558;2023-04-26T12:36:10;2.20;;;0.70;;
78840;SDS011;68379;47.190;27.558;2023-04-26T12:38:42;1.40;;;0.60;;
78840;SDS011;68379;47.190;27.558;2023-04-26T12:41:16;1.40;;;0.80;;
78840;SDS011;68379;47.190;27.558;2023-04-26T12:43:48;1.00;;;0.60;;
78840;SDS011;68379;47.190;27.558;2023-04-26T12:46:23;1.00;;;0.70;;
78840;SDS011;68379;47.190;27.558;2023-04-26T12:48:54;3.00;;;0.90;;
78840;SDS011;68379;47.190;27.558;2023-04-26T12:51:26;1.40;;;1.00;;
78840;SDS011;68379;47.190;27.558;2023-04-26T12:53:59;1.10;;;0.70;;
78840;SDS011;68379;47.190;27.558;2023-04-26T12:56:32;1.00;;;0.80;;
78840;SDS011;68379;47.190;27.558;2023-04-26T12:59:09;1.60;;;1.00;;
78840;SDS011;68379;47.190;27.558;2023-04-26T13:01:41;1.10;;;0.90;;
78840;SDS011;68379;47.190;27.558;2023-04-26T13:04:13;1.90;;;1.00;;
78840;SDS011;68379;47.190;27.558;2023-04-26T13:06:45;1.50;;;0.70;;
78840;SDS011;68379;47.190;27.558;2023-04-26T13:09:17;1.20;;;0.90;;
78840;SDS011;68379;47.190;27.558;2023-04-26T13:11:49;1.60;;;0.80;;
78840;SDS011;68379;47.190;27.558;2023-04-26T13:14:22;1.60;;;0.90;;
78840;SDS011;68379;47.190;27.558;2023-04-26T13:16:54;1.20;;;0.80;;
78840;SDS011;68379;47.190;27.558;2023-04-26T13:19:25;2.10;;;1.00;;
78840;SDS011;68379;47.190;27.558;2023-04-26T13:22:02;1.00;;;0.60;;
78840;SDS011;68379;47.190;27.558;2023-04-26T13:24:36;1.00;;;0.60;;
78840;SDS011;68379;47.190;27.558;2023-04-26T13:27:08;3.10;;;1.10;;
78840;SDS011;68379;47.190;27.558;2023-04-26T13:29:40;1.20;;;0.80;;
78840;SDS011;68379;47.190;27.558;2023-04-26T13:32:12;2.70;;;1.20;;
78840;SDS011;68379;47.190;27.558;2023-04-26T13:34:45;1.20;;;0.70;;
78840;SDS011;68379;47.190;27.558;2023-04-26T13:37:18;1.30;;;0.80;;
78840;SDS011;68379;47.190;27.558;2023-04-26T13:39:59;3.40;;;0.60;;
78840;SDS011;68379;47.190;27.558;2023-04-26T13:42:33;0.70;;;0.50;;
78840;SDS011;68379;47.190;27.558;2023-04-26T13:45:16;1.20;;;0.70;;
78840;SDS011;68379;47.190;27.558;2023-04-26T13:47:51;2.50;;;0.80;;
78840;SDS011;68379;47.190;27.558;2023-04-26T13:50:23;1.20;;;0.70;;
78840;SDS011;68379;47.190;27.558;2023-04-26T13:52:55;1.70;;;0.60;;
78840;SDS011;68379;47.190;27.558;2023-04-26T13:55:33;0.90;;;0.50;;
78840;SDS011;68379;47.190;27.558;2023-04-26T13:58:08;1.30;;;0.40;;
78840;SDS011;68379;47.190;27.558;2023-04-26T14:00:41;1.10;;;0.30;;
78840;SDS011;68379;47.190;27.558;2023-04-26T14:03:13;1.80;;;0.30;;
78840;SDS011;68379;47.190;27.558;2023-04-26T14:05:45;1.20;;;0.40;;
78840;SDS011;68379;47.190;27.558;2023-04-26T14:08:21;0.60;;;0.40;;
78840;SDS011;68379;47.190;27.558;2023-04-26T14:10:57;2.20;;;0.40;;
78840;SDS011;68379;47.190;27.558;2023-04-26T14:13:32;0.60;;;0.30;;
78840;SDS011;68379;47.190;27.558;2023-04-26T14:16:10;1.60;;;0.30;;
78840;SDS011;68379;47.190;27.558;2023-04-26T14:18:48;0.40;;;0.20;;
78840;SDS011;68379;47.190;27.558;2023-04-26T14:21:30;0.50;;;0.20;;
78840;SDS011;68379;47.190;27.558;2023-04-26T14:24:05;0.90;;;0.30;;
78840;SDS011;68379;47.190;27.558;2023-04-26T14:29:10;0.70;;;0.20;;
78840;SDS011;68379;47.190;27.558;2023-04-26T14:31:43;2.10;;;0.30;;
78840;SDS011;68379;47.190;27.558;2023-04-26T14:34:20;0.70;;;0.20;;
78840;SDS011;68379;47.190;27.558;2023-04-26T14:36:53;0.50;;;0.20;;
78840;SDS011;68379;47.190;27.558;2023-04-26T14:39:31;0.40;;;0.20;;
78840;SDS011;68379;47.190;27.558;2023-04-26T14:42:06;1.40;;;0.20;;
78840;SDS011;68379;47.190;27.558;2023-04-26T14:44:38;2.20;;;0.30;;
78840;SDS011;68379;47.190;27.558;2023-04-26T14:47:11;0.60;;;0.20;;
78840;SDS011;68379;47.190;27.558;2023-04-26T14:49:47;2.70;;;0.30;;
78840;SDS011;68379;47.190;27.558;2023-04-26T14:52:25;0.40;;;0.20;;
78840;SDS011;68379;47.190;27.558;2023-04-26T14:54:57;0.80;;;0.30;;
78840;SDS011;68379;47.190;27.558;2023-04-26T14:57:29;0.60;;;0.20;;
78840;SDS011;68379;47.190;27.558;2023-04-26T15:00:02;0.60;;;0.30;;
78840;SDS011;68379;47.190;27.558;2023-04-26T15:02:36;1.00;;;0.30;;
78840;SDS011;68379;47.190;27.558;2023-04-26T15:05:08;0.90;;;0.30;;
78840;SDS011;68379;47.190;27.558;2023-04-26T15:07:40;0.50;;;0.30;;
78840;SDS011;68379;47.190;27.558;2023-04-26T15:10:12;0.60;;;0.20;;
78840;SDS011;68379;47.190;27.558;2023-04-26T15:12:45;0.80;;;0.40;;
78840;SDS011;68379;47.190;27.558;2023-04-26T15:15:16;2.10;;;0.30;;
78840;SDS011;68379;47.190;27.558;2023-04-26T15:17:48;0.70;;;0.30;;
78840;SDS011;68379;47.190;27.558;2023-04-26T15:20:20;0.40;;;0.20;;
78840;SDS011;68379;47.190;27.558;2023-04-26T15:22:52;0.80;;;0.30;;
78840;SDS011;68379;47.190;27.558;2023-04-26T15:25:24;0.60;;;0.30;;
78840;SDS011;68379;47.190;27.558;2023-04-26T15:27:56;0.60;;;0.30;;
78840;SDS011;68379;47.190;27.558;2023-04-26T15:30:28;0.80;;;0.30;;
78840;SDS011;68379;47.190;27.558;2023-04-26T15:33:01;1.20;;;0.60;;
78840;SDS011;68379;47.190;27.558;2023-04-26T15:35:34;1.10;;;0.40;;